Time,TemperatureF,DewpointF,PressureIn,WindDirection,WindDirectionDegrees,WindSpeedMPH,WindSpeedGustMPH,Humidity,HourlyPrecipIn,Conditions,Clouds,dailyrainin,SoftwareType,DateUTC
2013-10-14 00:12:00,37.0,30.0,30.38,North,-999,-999.0,-999.0,77,-99.99,,,-99.99,,2013-10-14 05:12:00,
2013-10-14 00:23:00,37.0,30.0,30.38,North,-999,-999.0,-999.0,77,-99.99,,,-99.99,,2013-10-14 05:23:00,
2013-10-14 00:43:00,37.0,31.0,30.38,North,-999,-999.0,-999.0,78,-99.99,,,-99.99,,2013-10-14 05:43:00,
2013-10-14 00:52:00,36.0,30.0,30.38,North,-999,-999.0,-999.0,78,-99.99,,,-99.99,,2013-10-14 05:52:00,
2013-10-14 01:12:00,36.0,30.0,30.38,North,-999,-999.0,-999.0,78,-99.99,,,-99.99,,2013-10-14 06:12:00,
2013-10-14 01:22:00,36.0,30.0,30.38,North,-999,-999.0,-999.0,78,-99.99,,,-99.99,,2013-10-14 06:22:00,
2013-10-14 01:42:00,36.0,30.0,30.41,North,-999,-999.0,-999.0,78,-99.99,,,-99.99,,2013-10-14 06:42:00,
2013-10-14 01:52:00,35.0,29.0,30.41,North,-999,-999.0,-999.0,79,-99.99,,,-99.99,,2013-10-14 06:52:00,
2013-10-14 02:11:00,35.0,29.0,30.41,North,-999,-999.0,-999.0,79,-99.99,,,-99.99,,2013-10-14 07:11:00,
2013-10-14 02:22:00,35.0,29.0,30.41,North,-999,-999.0,-999.0,79,-99.99,,,-99.99,,2013-10-14 07:22:00,
2013-10-14 02:42:00,35.0,29.0,30.41,North,-999,-999.0,-999.0,79,-99.99,,,-99.99,,2013-10-14 07:42:00,
2013-10-14 02:52:00,35.0,29.0,30.41,North,-999,-999.0,-999.0,79,-99.99,,,-99.99,,2013-10-14 07:52:00,
2013-10-14 03:12:00,34.0,28.0,30.41,North,-999,-999.0,-999.0,80,-99.99,,,-99.99,,2013-10-14 08:12:00,
2013-10-14 03:21:00,34.0,28.0,30.41,North,-999,-999.0,-999.0,80,-99.99,,,-99.99,,2013-10-14 08:21:00,
2013-10-14 03:42:00,34.0,29.0,30.41,North,-999,-999.0,-999.0,81,-99.99,,,-99.99,,2013-10-14 08:42:00,
2013-10-14 03:52:00,34.0,29.0,30.41,North,-999,-999.0,-999.0,81,-99.99,,,-99.99,,2013-10-14 08:52:00,
2013-10-14 04:11:00,34.0,29.0,30.41,North,-999,-999.0,-999.0,81,-99.99,,,-99.99,,2013-10-14 09:11:00,
2013-10-14 04:22:00,34.0,28.0,30.41,North,-999,-999.0,-999.0,80,-99.99,,,-99.99,,2013-10-14 09:22:00,
2013-10-14 04:33:00,34.0,28.0,30.41,North,-999,-999.0,-999.0,80,-99.99,,,-99.99,,2013-10-14 09:33:00,
2013-10-14 04:43:00,34.0,28.0,30.41,North,-999,-999.0,-999.0,80,-99.99,,,-99.99,,2013-10-14 09:43:00,
2013-10-14 04:53:00,33.0,28.0,30.38,North,-999,-999.0,-999.0,81,-99.99,,,-99.99,,2013-10-14 09:53:00,
2013-10-14 05:13:00,33.0,28.0,30.41,North,-999,-999.0,-999.0,81,-99.99,,,-99.99,,2013-10-14 10:13:00,
2013-10-14 05:23:00,33.0,28.0,30.41,North,-999,-999.0,-999.0,82,-99.99,,,-99.99,,2013-10-14 10:23:00,
2013-10-14 05:42:00,33.0,28.0,30.41,North,-999,-999.0,-999.0,81,-99.99,,,-99.99,,2013-10-14 10:42:00,
2013-10-14 05:53:00,33.0,28.0,30.41,North,-999,-999.0,-999.0,82,-99.99,,,-99.99,,2013-10-14 10:53:00,
2013-10-14 06:11:00,33.0,28.0,30.41,North,-999,-999.0,-999.0,82,-99.99,,,-99.99,,2013-10-14 11:11:00,
2013-10-14 06:22:00,32.0,27.0,30.38,North,-999,-999.0,-999.0,81,-99.99,,,-99.99,,2013-10-14 11:22:00,
2013-10-14 06:42:00,32.0,27.0,30.38,North,-999,-999.0,-999.0,81,-99.99,,,-99.99,,2013-10-14 11:42:00,
2013-10-14 06:52:00,32.0,27.0,30.41,North,-999,-999.0,-999.0,81,-99.99,,,-99.99,,2013-10-14 11:52:00,
2013-10-14 07:12:00,32.0,27.0,30.41,North,-999,-999.0,-999.0,83,-99.99,,,-99.99,,2013-10-14 12:12:00,
2013-10-14 07:22:00,32.0,28.0,30.41,North,-999,-999.0,-999.0,84,-99.99,,,-99.99,,2013-10-14 12:22:00,
2013-10-14 07:42:00,33.0,29.0,30.38,North,-999,-999.0,-999.0,84,-99.99,,,-99.99,,2013-10-14 12:42:00,
2013-10-14 07:52:00,33.0,28.0,30.38,North,-999,-999.0,-999.0,83,-99.99,,,-99.99,,2013-10-14 12:52:00,
2013-10-14 08:11:00,33.0,29.0,30.38,North,-999,-999.0,-999.0,84,-99.99,,,-99.99,,2013-10-14 13:11:00,
2013-10-14 08:21:00,35.0,30.0,30.35,North,-999,-999.0,-999.0,82,-99.99,,,-99.99,,2013-10-14 13:21:00,
2013-10-14 08:42:00,37.0,32.0,30.38,North,-999,-999.0,-999.0,81,-99.99,,,-99.99,,2013-10-14 13:42:00,
2013-10-14 08:52:00,38.0,33.0,30.38,North,-999,-999.0,-999.0,81,-99.99,,,-99.99,,2013-10-14 13:52:00,
2013-10-14 09:11:00,39.0,34.0,30.38,North,-999,-999.0,-999.0,82,-99.99,,,-99.99,,2013-10-14 14:11:00,
2013-10-14 09:22:00,40.0,35.0,30.35,North,-999,-999.0,-999.0,81,-99.99,,,-99.99,,2013-10-14 14:22:00,
2013-10-14 09:42:00,43.0,37.0,30.32,North,-999,-999.0,-999.0,79,-99.99,,,-99.99,,2013-10-14 14:42:00,
2013-10-14 09:52:00,43.0,37.0,30.32,North,-999,-999.0,-999.0,79,-99.99,,,-99.99,,2013-10-14 14:52:00,
2013-10-14 10:11:00,44.0,37.0,30.35,North,-999,-999.0,-999.0,77,-99.99,,,-99.99,,2013-10-14 15:11:00,
2013-10-14 10:21:00,46.0,39.0,30.35,North,-999,-999.0,-999.0,76,-99.99,,,-99.99,,2013-10-14 15:21:00,
2013-10-14 10:44:00,48.0,40.0,30.35,North,-999,-999.0,-999.0,75,-99.99,,,-99.99,,2013-10-14 15:44:00,
2013-10-14 10:54:00,49.0,41.0,30.35,North,-999,-999.0,-999.0,74,-99.99,,,-99.99,,2013-10-14 15:54:00,
2013-10-14 11:13:00,49.0,40.0,30.35,North,-999,-999.0,-999.0,72,-99.99,,,-99.99,,2013-10-14 16:13:00,
2013-10-14 11:23:00,53.0,43.0,30.35,North,-999,-999.0,-999.0,68,-99.99,,,-99.99,,2013-10-14 16:23:00,
2013-10-14 11:43:00,55.0,43.0,30.35,North,-999,-999.0,-999.0,65,-99.99,,,-99.99,,2013-10-14 16:43:00,
2013-10-14 11:53:00,57.0,43.0,30.35,North,-999,-999.0,-999.0,60,-99.99,,,-99.99,,2013-10-14 16:53:00,
2013-10-14 12:12:00,57.0,42.0,30.32,North,-999,-999.0,-999.0,58,-99.99,,,-99.99,,2013-10-14 17:12:00,
2013-10-14 12:22:00,58.0,41.0,30.32,North,-999,-999.0,-999.0,53,-99.99,,,-99.99,,2013-10-14 17:22:00,
2013-10-14 12:42:00,60.0,42.0,30.32,North,-999,-999.0,-999.0,51,-99.99,,,-99.99,,2013-10-14 17:42:00,
2013-10-14 12:52:00,61.0,40.0,30.29,North,-999,-999.0,-999.0,46,-99.99,,,-99.99,,2013-10-14 17:52:00,
2013-10-14 13:12:00,62.0,41.0,30.29,North,-999,-999.0,-999.0,46,-99.99,,,-99.99,,2013-10-14 18:12:00,
2013-10-14 13:22:00,62.0,40.0,30.26,North,-999,-999.0,-999.0,44,-99.99,,,-99.99,,2013-10-14 18:22:00,
2013-10-14 13:42:00,61.0,38.0,30.26,North,-999,-999.0,-999.0,43,-99.99,,,-99.99,,2013-10-14 18:42:00,
2013-10-14 13:52:00,61.0,38.0,30.26,North,-999,-999.0,-999.0,43,-99.99,,,-99.99,,2013-10-14 18:52:00,
2013-10-14 14:11:00,61.0,39.0,30.23,North,-999,-999.0,-999.0,44,-99.99,,,-99.99,,2013-10-14 19:11:00,
2013-10-14 14:22:00,61.0,36.0,30.23,North,-999,-999.0,-999.0,40,-99.99,,,-99.99,,2013-10-14 19:22:00,
2013-10-14 14:42:00,62.0,38.0,30.20,North,-999,-999.0,-999.0,41,-99.99,,,-99.99,,2013-10-14 19:42:00,
2013-10-14 14:52:00,62.0,39.0,30.20,North,-999,-999.0,-999.0,42,-99.99,,,-99.99,,2013-10-14 19:52:00,
2013-10-14 15:11:00,62.0,40.0,30.17,North,-999,-999.0,-999.0,44,-99.99,,,-99.99,,2013-10-14 20:11:00,
2013-10-14 15:22:00,62.0,40.0,30.17,North,-999,-999.0,-999.0,44,-99.99,,,-99.99,,2013-10-14 20:22:00,
2013-10-14 15:43:00,62.0,39.0,30.14,North,-999,-999.0,-999.0,43,-99.99,,,-99.99,,2013-10-14 20:43:00,
2013-10-14 15:52:00,62.0,39.0,30.14,North,-999,-999.0,-999.0,43,-99.99,,,-99.99,,2013-10-14 20:52:00,
2013-10-14 16:12:00,62.0,40.0,30.14,North,-999,-999.0,-999.0,44,-99.99,,,-99.99,,2013-10-14 21:12:00,
2013-10-14 16:22:00,61.0,39.0,30.14,North,-999,-999.0,-999.0,44,-99.99,,,-99.99,,2013-10-14 21:22:00,
2013-10-14 16:44:00,62.0,41.0,30.14,North,-999,-999.0,-999.0,46,-99.99,,,-99.99,,2013-10-14 21:44:00,
2013-10-14 16:55:00,62.0,40.0,30.14,North,-999,-999.0,-999.0,45,-99.99,,,-99.99,,2013-10-14 21:55:00,
2013-10-14 17:13:00,62.0,41.0,30.11,North,-999,-999.0,-999.0,46,-99.99,,,-99.99,,2013-10-14 22:13:00,
2013-10-14 17:24:00,61.0,40.0,30.11,North,-999,-999.0,-999.0,46,-99.99,,,-99.99,,2013-10-14 22:24:00,
2013-10-14 17:43:00,61.0,40.0,30.11,North,-999,-999.0,-999.0,46,-99.99,,,-99.99,,2013-10-14 22:43:00,
2013-10-14 17:54:00,59.0,38.0,30.11,North,-999,-999.0,-999.0,46,-99.99,,,-99.99,,2013-10-14 22:54:00,
2013-10-14 18:12:00,58.0,38.0,30.11,North,-999,-999.0,-999.0,48,-99.99,,,-99.99,,2013-10-14 23:12:00,
2013-10-14 18:22:00,58.0,39.0,30.11,North,-999,-999.0,-999.0,49,-99.99,,,-99.99,,2013-10-14 23:22:00,
2013-10-14 18:42:00,58.0,39.0,30.11,North,-999,-999.0,-999.0,49,-99.99,,,-99.99,,2013-10-14 23:42:00,
2013-10-14 18:52:00,58.0,39.0,30.11,North,-999,-999.0,-999.0,49,-99.99,,,-99.99,,2013-10-14 23:52:00,
2013-10-14 19:02:00,58.0,39.0,30.11,North,-999,-999.0,-999.0,49,-99.99,,,-99.99,,2013-10-15 00:02:00,
2013-10-14 19:12:00,58.0,39.0,30.11,North,-999,-999.0,-999.0,49,-99.99,,,-99.99,,2013-10-15 00:12:00,
2013-10-14 19:22:00,57.0,39.0,30.11,North,-999,-999.0,-999.0,51,-99.99,,,-99.99,,2013-10-15 00:22:00,
2013-10-14 19:42:00,57.0,39.0,30.08,North,-999,-999.0,-999.0,51,-99.99,,,-99.99,,2013-10-15 00:42:00,
2013-10-14 19:52:00,57.0,40.0,30.08,North,-999,-999.0,-999.0,52,-99.99,,,-99.99,,2013-10-15 00:52:00,
2013-10-14 20:12:00,57.0,40.0,30.08,North,-999,-999.0,-999.0,52,-99.99,,,-99.99,,2013-10-15 01:12:00,
2013-10-14 20:22:00,57.0,40.0,30.08,North,-999,-999.0,-999.0,53,-99.99,,,-99.99,,2013-10-15 01:22:00,
2013-10-14 20:42:00,57.0,40.0,30.08,North,-999,-999.0,-999.0,52,-99.99,,,-99.99,,2013-10-15 01:42:00,
2013-10-14 20:52:00,57.0,40.0,30.08,North,-999,-999.0,-999.0,52,-99.99,,,-99.99,,2013-10-15 01:52:00,
2013-10-14 21:12:00,56.0,39.0,30.08,North,-999,-999.0,-999.0,53,-99.99,,,-99.99,,2013-10-15 02:12:00,
2013-10-14 21:22:00,56.0,39.0,30.08,North,-999,-999.0,-999.0,53,-99.99,,,-99.99,,2013-10-15 02:22:00,
2013-10-14 21:42:00,55.0,39.0,30.08,North,-999,-999.0,-999.0,54,-99.99,,,-99.99,,2013-10-15 02:42:00,
2013-10-14 21:52:00,55.0,39.0,30.08,North,-999,-999.0,-999.0,54,-99.99,,,-99.99,,2013-10-15 02:52:00,
2013-10-14 22:12:00,55.0,39.0,30.05,North,-999,-999.0,-999.0,55,-99.99,,,-99.99,,2013-10-15 03:12:00,
2013-10-14 22:23:00,55.0,40.0,30.05,North,-999,-999.0,-999.0,56,-99.99,,,-99.99,,2013-10-15 03:23:00,
2013-10-14 22:44:00,55.0,40.0,30.05,North,-999,-999.0,-999.0,57,-99.99,,,-99.99,,2013-10-15 03:44:00,
2013-10-14 22:55:00,55.0,41.0,30.02,North,-999,-999.0,-999.0,58,-99.99,,,-99.99,,2013-10-15 03:55:00,
2013-10-14 23:14:00,54.0,40.0,30.02,North,-999,-999.0,-999.0,59,-99.99,,,-99.99,,2013-10-15 04:14:00,
2013-10-14 23:24:00,54.0,40.0,30.02,North,-999,-999.0,-999.0,60,-99.99,,,-99.99,,2013-10-15 04:24:00,
2013-10-14 23:43:00,54.0,41.0,30.02,North,-999,-999.0,-999.0,61,-99.99,,,-99.99,,2013-10-15 04:43:00,
2013-10-14 23:54:00,53.0,40.0,30.02,North,-999,-999.0,-999.0,62,-99.99,,,-99.99,,2013-10-15 04:54:00,